Time;durP1;ratioP1;P1;durP2;ratioP2;P2;SDS_P1;SDS_P2;PMS_P1;PMS_P2;Temp;Humidity;BMP_temperature;BMP_pressure;BME280_temperature;BME280_humidity;BME280_pressure;Samples;Min_cycle;Max_cycle;Signal;HPM_P1;HPM_P2
2022/09/13 22:06:33;;;;;;;4.43;1.85;;;;;;;20.26;56.79;101064.56;6083579;23;1336629;-43
2022/09/13 22:09:00;;;;;;;4.63;1.90;;;;;;;20.23;56.73;101067.31;6073753;23;20028;-44
2022/09/13 22:11:32;;;;;;;8.27;1.70;;;;;;;20.24;56.72;101068.19;6081033;23;20013;-45
2022/09/13 22:13:58;;;;;;;6.82;1.80;;;;;;;20.24;56.50;101066.41;6085435;23;20519;-41
2022/09/13 22:16:33;;;;;;;4.53;1.98;;;;;;;20.15;57.04;101068.38;6073582;23;20422;-44
2022/09/13 22:19:02;;;;;;;5.50;2.00;;;;;;;20.31;56.58;101071.56;6069726;23;20017;-44
2022/09/13 22:21:32;;;;;;;4.90;1.75;;;;;;;20.18;57.19;101074.50;6078279;23;20045;-41
2022/09/13 22:23:58;;;;;;;6.65;2.05;;;;;;;20.04;57.79;101070.41;6065218;23;20117;-43
2022/09/13 22:26:29;;;;;;;8.10;2.30;;;;;;;19.92;58.13;101073.31;6075771;23;20329;-42
2022/09/13 22:28:57;;;;;;;7.78;1.90;;;;;;;20.05;57.66;101072.16;6047206;23;20483;-43
2022/09/13 22:31:27;;;;;;;9.48;1.95;;;;;;;20.18;57.53;101058.59;6076250;23;20453;-43
2022/09/13 22:33:55;;;;;;;5.65;1.90;;;;;;;20.23;57.09;101054.06;6080889;23;20027;-43
2022/09/13 22:36:22;;;;;;;5.93;2.10;;;;;;;19.97;58.09;101048.50;6078665;23;20069;-43
2022/09/13 22:38:50;;;;;;;5.22;1.83;;;;;;;19.98;58.04;101055.53;6048826;23;20010;-44
2022/09/13 22:41:28;;;;;;;5.97;2.00;;;;;;;19.89;58.59;101057.50;6081967;23;20454;-41
2022/09/13 22:43:55;;;;;;;6.57;1.90;;;;;;;19.87;58.48;101059.31;6074526;23;20627;-41
2022/09/13 22:46:23;;;;;;;6.05;2.13;;;;;;;19.74;58.67;101066.66;6079432;23;20025;-45
2022/09/13 22:48:49;;;;;;;4.32;2.00;;;;;;;19.69;58.91;101066.75;6076599;23;20006;-43
2022/09/13 22:51:16;;;;;;;6.95;1.92;;;;;;;19.74;59.04;101066.66;6067826;23;20101;-41
2022/09/13 22:53:44;;;;;;;5.93;1.98;;;;;;;19.77;58.65;101063.91;6074439;23;20009;-41
2022/09/13 22:56:14;;;;;;;5.70;1.92;;;;;;;19.88;58.43;101055.78;6079367;23;20629;-41
2022/09/13 22:58:40;;;;;;;6.68;2.00;;;;;;;19.88;58.55;101058.44;6080827;23;20018;-42
2022/09/13 23:01:08;;;;;;;6.78;2.42;;;;;;;19.87;58.74;101054.91;6068178;23;20009;-45
2022/09/13 23:03:34;;;;;;;7.78;2.30;;;;;;;19.70;59.08;101060.53;6078856;23;20048;-42
2022/09/13 23:06:00;;;;;;;6.13;2.13;;;;;;;19.83;58.86;101045.28;6072707;23;20258;-44
2022/09/13 23:08:26;;;;;;;4.28;1.88;;;;;;;19.91;58.29;101056.56;6077271;23;20575;-43
2022/09/13 23:10:54;;;;;;;6.45;2.10;;;;;;;19.88;58.63;101054.00;6057676;23;20010;-45
2022/09/13 23:13:20;;;;;;;6.05;1.77;;;;;;;19.94;58.51;101045.94;6072931;23;20318;-43
2022/09/13 23:15:45;;;;;;;3.45;2.25;;;;;;;20.02;57.77;101045.72;6086390;23;20002;-45
2022/09/13 23:18:12;;;;;;;6.03;2.10;;;;;;;19.95;58.29;101039.72;6076550;23;20002;-44
2022/09/13 23:20:38;;;;;;;3.47;1.90;;;;;;;19.97;58.21;101039.69;6080207;23;20343;-43
2022/09/13 23:23:04;;;;;;;8.00;2.35;;;;;;;20.02;57.32;101029.84;6077232;23;20072;-43
2022/09/13 23:25:31;;;;;;;7.13;2.10;;;;;;;19.99;57.63;101027.28;6052013;23;20618;-44
2022/09/13 23:27:57;;;;;;;5.65;2.30;;;;;;;19.96;57.78;101030.00;6081893;23;20571;-41
2022/09/13 23:30:22;;;;;;;7.95;2.15;;;;;;;20.01;57.74;101034.28;6082488;23;20598;-42
2022/09/13 23:32:50;;;;;;;6.70;2.08;;;;;;;20.04;56.70;101028.94;6074747;23;20024;-41
2022/09/13 23:35:16;;;;;;;5.45;2.20;;;;;;;20.17;56.32;101034.81;6083813;23;20006;-42
2022/09/13 23:37:42;;;;;;;5.95;1.90;;;;;;;20.10;56.94;101033.22;6059212;23;20496;-43
2022/09/13 23:40:08;;;;;;;7.68;2.28;;;;;;;20.08;57.17;101035.00;6055839;23;20013;-44
2022/09/13 23:42:34;;;;;;;4.10;1.90;;;;;;;20.09;56.92;101027.03;6068591;23;20348;-42
2022/09/13 23:44:59;;;;;;;7.15;1.90;;;;;;;20.07;56.97;101033.25;6069493;23;20014;-44
2022/09/13 23:47:24;;;;;;;8.57;2.10;;;;;;;19.99;57.84;101037.88;6076128;23;20274;-43
2022/09/13 23:49:50;;;;;;;5.78;2.00;;;;;;;20.07;57.42;101034.13;6078216;23;20433;-43
2022/09/13 23:52:15;;;;;;;4.85;1.88;;;;;;;19.95;57.26;101034.41;6081397;23;20006;-43
2022/09/13 23:54:40;;;;;;;8.25;2.22;;;;;;;20.04;57.17;101033.34;6084838;23;20009;-45
2022/09/13 23:57:06;;;;;;;7.70;1.83;;;;;;;19.75;57.78;101034.00;6065031;23;20017;-41
2022/09/13 23:59:31;;;;;;;5.38;1.73;;;;;;;19.90;57.83;101028.34;6075768;23;20542;-40
